Flight Track Log - Related Links

Times and Time Zones

All times are in EDT time to prevent confusion due to time zone crossing. See the PDT4314 flight status page for this flight to view local times or setup timezone preferences in your user account.

Time Position Orientation Groundspeed Altitude Reporting Facility
EDT Latitude Longitude Course Direction KTS MPH feet Rate Location/Type
Fri 06:09:00 PM 41.9924 -75.9090 180° South  Level Estimated
Fri 06:10:00 PM 41.9370 -75.9146 184° South  Level FlightAware Approximate
Fri 06:11:00 PM 41.8830 -75.8964 154° Southeast  Level Estimated
Fri 06:12:00 PM 41.8291 -75.8783 160° South  Level Estimated
Fri 06:13:00 PM 41.7736 -75.8750 177° South  Level FlightAware Approximate
Fri 06:14:00 PM 41.7197 -75.8565 159° South  Level Estimated
Fri 06:15:00 PM 41.6652 -75.8424 169° South  Level FlightAware Approximate
Fri 06:16:00 PM 41.6114 -75.8239 153° Southeast  Level Estimated
Fri 06:17:00 PM 41.5575 -75.8053 161° South  Level Estimated
Fri 06:18:00 PM 41.5045 -75.7830 162° South  Level FlightAware Approximate
Fri 06:19:00 PM 41.4515 -75.7607 163° South  Level FlightAware Approximate
Fri 06:20:00 PM 41.3985 -75.7385 163° South  Level FlightAware Approximate
Fri 06:21:00 PM 41.3446 -75.7205 162° South  Level Estimated
Fri 06:22:00 PM 41.2919 -75.6969 161° South  Level FlightAware Approximate
Fri 06:23:00 PM 41.2392 -75.6733 161° South  Level FlightAware Approximate
Fri 06:24:00 PM 41.1865 -75.6497 161° South  Level FlightAware Approximate
Fri 06:25:00 PM 41.1338 -75.6262 161° South  Level FlightAware Approximate
Fri 06:26:00 PM 41.0797 -75.6094 163° South  Level Estimated
Fri 06:27:00 PM 41.0270 -75.5861 162° South  Level FlightAware Approximate
Fri 06:28:00 PM 40.9743 -75.5629 162° South  Level FlightAware Approximate
Fri 06:29:00 PM 40.9215 -75.5397 162° South  Level FlightAware Approximate
Fri 06:29:20 PM 40.7000 -75.5333 180° South 250 288 8,100  Level Philadelphia TRACON
Fri 06:29:44 PM 40.6667 -75.5333 180° South 251 289 8,100 -333 Level Philadelphia TRACON
Fri 06:30:00 PM 40.8688 -75.5165 162° South  Level FlightAware Approximate
Fri 06:30:50 PM 40.5833 -75.5333 180° South 260 299 7,600  Level Philadelphia TRACON
Fri 06:31:00 PM 40.8144 -75.5013 190° South  Level Estimated
Fri 06:31:50 PM 40.5167 -75.5333 180° South 271 312 7,100  Level Philadelphia TRACON
Fri 06:32:00 PM 40.7588 -75.5010 180° South  Level FlightAware Approximate
Fri 06:32:50 PM 40.4333 -75.5500 189° South 275 316 6,200  Level Philadelphia TRACON
Fri 06:33:00 PM 40.7032 -75.5008 180° South  Level FlightAware Approximate
Fri 06:33:50 PM 40.3667 -75.5333 169° South 283 326 5,200  Level Philadelphia TRACON
Fri 06:34:00 PM 40.6476 -75.5006 180° South  Level FlightAware Approximate
Fri 06:34:50 PM 40.3000 -75.4833 150° Southeast 266 306 5,000  Level Philadelphia TRACON
Fri 06:35:56 PM 40.2333 -75.4333 150° Southeast 255 293 5,000 -190 Level Philadelphia TRACON
Fri 06:36:56 PM 40.1667 -75.3833 150° Southeast 267 307 4,600 -500 Descending Philadelphia TRACON
Fri 06:37:56 PM 40.1167 -75.3167 134° Southeast 265 305 4,000 -286 Descending Philadelphia TRACON
Fri 06:39:02 PM 40.0500 -75.2500 143° Southeast 247 284 4,000  Level Philadelphia TRACON
Fri 06:40:02 PM 40.0000 -75.2000 143° Southeast 244 281 4,000  Level Philadelphia TRACON
Fri 06:41:02 PM 39.9333 -75.1833 169° South 238 274 4,000  Level Philadelphia TRACON
Fri 06:42:02 PM 39.8833 -75.1500 153° Southeast 214 246 4,000 -496 Level Philadelphia TRACON
Fri 06:43:03 PM 39.8167 -75.1333 169° South 222 255 3,000 -942 Descending Philadelphia TRACON
Fri 06:44:03 PM 39.7833 -75.1833 229° Southwest 163 188 2,100 -950 Descending Philadelphia TRACON
Fri 06:45:03 PM 39.8167 -75.2000 339° North 140 161 1,100 -800 Descending Philadelphia TRACON
Fri 06:46:03 PM 39.8500 -75.2167 339° North 92 106 500 -600 Descending Philadelphia TRACON

Login

Don't have an account? Register now (free) for customized features, flight alerts, and more!